Terminal Aerodrome Forecast
Issued by NWS Cheyenne, WY

Home | Current Version | Previous Version | Text Only | Print | Product List | Glossary On
Versions: 1 2 3 4 5 6 7 8 9 10 11 12 13 14 15 16 17 18 19 20 21 22 23 24 25 26 27 28 29 30 31 32 33 34 35 36 37 38 39 40 41 42 43 44 45 46 47 48 49 50
000
FTUS45 KCYS 151720
TAFCYS
TAF
KCYS 151720Z 1518/1618 29026G36KT P6SM SCT250
     FM160100 28014G22KT P6SM BKN200
     FM160600 28012KT P6SM OVC150
     FM161300 35008KT P6SM OVC120=

USA.gov is the U.S. government's official web portal to all federal, state and local government web resources and services.